Terminal Aerodrome Forecast
Issued by NWS

Home | Current Version | Previous Version | Text Only | Print | Product List | Glossary Off
Versions: 1 2 3 4 5 6 7 8 9 10 11 12 13 14

151
FTUS43 KMPX 151434 AAA
TAFRWF
TAF AMD
KRWF 151434Z 1515/1612 32013G20KT P6SM SCT008 OVC011
     FM152100 34016G24KT 6SM -SN BKN015
     FM160300 33015G23KT P6SM SCT020 BKN050
     FM160600 31011KT P6SM SKC=

USA.gov is the U.S. government's official web portal to all federal, state and local government web resources and services.